createdAt,value
2022-09-06T04:49:23.850Z,2.97
2022-09-06T04:53:16.454Z,3.03
2022-09-06T05:01:22.949Z,2.60
2022-09-06T05:05:15.520Z,2.78
2022-09-06T05:57:41.494Z,2.80
2022-09-06T06:01:34.033Z,2.72
2022-09-06T06:05:26.588Z,3.10
2022-09-06T06:09:19.167Z,2.95
2022-09-06T06:13:11.506Z,2.90
2022-09-06T06:17:04.233Z,2.70
2022-09-06T06:21:26.710Z,2.92
2022-09-06T06:25:23.150Z,2.78
2022-09-06T06:29:15.630Z,2.90
2022-09-06T06:33:08.036Z,2.92
2022-09-06T06:37:00.575Z,3.00
2022-09-06T06:40:57.202Z,2.70
2022-09-06T06:44:55.291Z,2.70
2022-09-06T06:48:50.452Z,2.80
2022-09-06T06:52:46.459Z,3.30
2022-09-06T06:56:41.150Z,3.00
2022-09-06T07:00:33.569Z,3.55
2022-09-06T07:04:25.973Z,5.07
2022-09-06T07:08:18.509Z,3.53
2022-09-06T07:12:11.024Z,3.40
2022-09-06T07:16:20.667Z,4.80
2022-09-06T07:20:14.288Z,3.65
2022-09-06T07:24:08.801Z,3.63
2022-09-06T07:28:07.113Z,3.60
2022-09-06T07:32:15.997Z,4.85
2022-09-06T07:36:09.034Z,6.18
2022-09-06T07:40:01.713Z,5.35
2022-09-06T07:43:54.879Z,3.45
2022-09-06T07:51:48.465Z,3.63
2022-09-06T07:55:40.882Z,4.43
2022-09-06T07:59:33.378Z,4.47
2022-09-06T08:03:25.862Z,4.68
2022-09-06T08:11:33.992Z,3.95
2022-09-06T08:15:26.386Z,3.60
2022-09-06T08:19:19.165Z,4.65
2022-09-06T08:23:11.674Z,4.00
2022-09-06T08:27:07.712Z,4.15
2022-09-06T08:31:14.363Z,3.58
2022-09-06T08:35:07.557Z,3.00
2022-09-06T08:39:01.849Z,3.45
2022-09-06T08:42:54.557Z,3.10
2022-09-06T08:46:55.876Z,3.17
2022-09-06T08:51:11.070Z,3.03
2022-09-06T08:55:29.649Z,3.00
2022-09-06T08:59:22.616Z,3.72
2022-09-06T09:03:19.704Z,3.58
2022-09-06T09:07:37.979Z,3.65
2022-09-06T09:11:33.498Z,3.65
2022-09-06T09:15:26.099Z,2.97
2022-09-06T09:19:18.576Z,3.28
2022-09-06T09:23:11.087Z,3.20
2022-09-06T09:27:11.354Z,3.88
2022-09-06T09:31:05.275Z,3.17
2022-09-06T09:35:24.121Z,3.80
2022-09-06T09:39:16.913Z,2.83
2022-09-06T09:43:19.917Z,3.42
2022-09-06T09:47:33.442Z,3.00
2022-09-06T09:51:27.795Z,3.40
2022-09-06T09:55:28.328Z,4.30
2022-09-06T09:59:28.312Z,3.30
2022-09-06T10:03:28.185Z,3.90
2022-09-06T10:07:24.414Z,3.22
2022-09-06T10:11:38.173Z,3.13
2022-09-06T10:15:36.403Z,3.05
2022-09-06T10:19:42.574Z,3.42
2022-09-06T10:28:37.143Z,3.05
2022-09-06T11:58:18.042Z,3.03
2022-09-06T12:02:33.068Z,2.70
2022-09-06T12:06:35.525Z,2.88
2022-09-06T12:10:30.797Z,2.95
2022-09-06T12:14:36.485Z,2.85
2022-09-06T12:18:47.184Z,3.00
2022-09-06T12:22:40.414Z,2.88
2022-09-06T12:26:55.403Z,2.97
2022-09-06T12:30:51.131Z,2.60
2022-09-06T12:34:45.529Z,2.70
2022-09-06T12:38:38.100Z,2.75
2022-09-06T12:42:32.173Z,2.50
2022-09-06T12:46:25.961Z,2.92
2022-09-06T12:50:25.303Z,2.80
2022-09-06T12:54:20.436Z,2.80
2022-09-06T12:58:12.942Z,2.92
2022-09-06T13:02:12.433Z,3.05
2022-09-06T13:06:06.615Z,2.90
2022-09-06T13:09:59.441Z,3.13
2022-09-06T13:13:53.843Z,3.10
2022-09-06T13:17:46.802Z,2.83
2022-09-06T13:21:41.589Z,2.40
2022-09-06T13:25:34.078Z,2.80
2022-09-06T13:29:31.630Z,2.45
2022-09-06T13:33:26.013Z,2.60
2022-09-06T13:37:19.826Z,2.83
2022-09-06T13:41:24.883Z,2.85
2022-09-06T13:45:27.141Z,2.47
2022-09-06T13:49:19.597Z,2.65
2022-09-06T13:53:12.166Z,2.50
2022-09-06T13:57:04.674Z,2.55
2022-09-06T14:00:57.167Z,2.50
2022-09-06T14:04:49.848Z,2.60
2022-09-06T14:09:05.843Z,2.47
2022-09-06T14:12:55.536Z,2.80
2022-09-06T14:16:48.171Z,3.15
2022-09-06T14:20:40.945Z,3.17
2022-09-06T14:24:33.300Z,3.00
2022-09-06T14:28:26.493Z,3.00
2022-09-06T14:32:22.493Z,3.33
2022-09-06T14:36:18.457Z,3.00
2022-09-06T14:40:11.127Z,2.88
2022-09-06T14:44:04.275Z,2.78
2022-09-06T14:47:56.747Z,3.60
2022-09-06T14:51:49.265Z,2.80
2022-09-06T14:55:42.754Z,3.10
2022-09-06T14:59:35.212Z,3.33
2022-09-06T15:03:27.719Z,3.15
2022-09-06T15:07:20.300Z,3.47
2022-09-06T15:11:12.838Z,2.95
2022-09-06T15:15:05.908Z,3.50
2022-09-06T15:18:58.368Z,4.10
2022-09-06T15:22:56.421Z,3.63
2022-09-06T15:27:01.564Z,4.05
2022-09-06T15:30:54.033Z,4.20
2022-09-06T15:34:46.431Z,3.80
2022-09-06T15:38:49.775Z,3.83
2022-09-06T15:42:42.817Z,4.03
2022-09-06T15:46:35.229Z,3.67
2022-09-06T15:50:49.859Z,3.47
2022-09-06T15:54:58.703Z,3.72
2022-09-06T15:58:51.279Z,3.55
2022-09-06T16:02:43.739Z,3.80
2022-09-06T16:06:42.756Z,4.28
2022-09-06T16:10:38.709Z,3.70
2022-09-06T16:14:31.594Z,3.70
2022-09-06T16:18:24.177Z,4.20
2022-09-06T16:22:16.830Z,3.92
2022-09-06T16:26:09.948Z,3.85
2022-09-06T16:30:02.633Z,3.60
2022-09-06T16:33:57.894Z,3.67
2022-09-06T16:37:50.395Z,4.15
2022-09-06T16:41:44.740Z,4.07
2022-09-06T16:45:37.223Z,4.05
2022-09-06T16:49:30.203Z,3.85
2022-09-06T16:53:24.028Z,3.70
2022-09-06T16:57:16.581Z,4.38
2022-09-06T17:01:10.331Z,4.45
2022-09-06T17:05:03.971Z,3.88
2022-09-06T17:09:00.789Z,3.97
2022-09-06T17:12:53.237Z,4.13
2022-09-06T17:17:04.311Z,4.00
2022-09-06T17:21:02.201Z,3.35
2022-09-06T17:24:54.666Z,3.88
2022-09-06T17:28:48.539Z,3.13
2022-09-06T17:32:41.035Z,3.80
2022-09-06T17:36:35.142Z,3.50
2022-09-06T17:40:27.912Z,3.83
2022-09-06T17:44:23.513Z,3.42
2022-09-06T17:48:16.196Z,3.40
2022-09-06T17:52:08.755Z,3.47
2022-09-06T17:56:10.194Z,3.40
2022-09-06T18:00:03.837Z,3.75
2022-09-06T18:03:57.311Z,3.50
2022-09-06T18:07:50.186Z,4.20
2022-09-06T18:11:46.204Z,3.60
2022-09-06T18:15:40.952Z,3.60
2022-09-06T18:19:33.628Z,3.83
2022-09-06T18:23:28.714Z,3.53
2022-09-06T18:27:21.468Z,3.58
2022-09-06T18:31:17.622Z,3.85
2022-09-06T18:35:10.723Z,4.43
2022-09-06T18:39:05.182Z,4.40
2022-09-06T18:42:58.061Z,5.07
2022-09-06T18:46:51.101Z,4.63
2022-09-06T18:50:43.910Z,5.40
2022-09-06T18:54:36.699Z,4.50
2022-09-06T18:58:29.839Z,6.72
2022-09-06T19:02:23.973Z,6.55
2022-09-06T19:06:21.204Z,4.50
2022-09-06T19:10:14.398Z,4.00
2022-09-06T19:14:07.644Z,3.92
2022-09-06T19:18:00.375Z,3.88
2022-09-06T19:21:53.028Z,4.00
2022-09-06T19:25:45.665Z,4.03
2022-09-06T19:29:38.877Z,3.90
2022-09-06T19:33:35.952Z,4.00
2022-09-06T19:37:30.505Z,3.80
2022-09-06T19:41:23.950Z,3.60
2022-09-06T19:45:16.809Z,4.05
2022-09-06T19:49:09.947Z,3.90
2022-09-06T19:53:07.210Z,3.80
2022-09-06T19:57:00.319Z,3.72
2022-09-06T20:00:54.107Z,4.18
2022-09-06T20:04:47.217Z,3.90
2022-09-06T20:08:40.659Z,3.97
2022-09-06T20:12:33.447Z,3.70
2022-09-06T20:16:26.928Z,4.03
2022-09-06T20:20:19.443Z,4.10
2022-09-06T20:24:12.050Z,3.78
2022-09-06T20:28:05.302Z,3.83
2022-09-06T20:31:57.742Z,4.00
2022-09-06T20:35:58.625Z,4.20
2022-09-06T20:39:55.978Z,3.85
2022-09-06T20:43:56.932Z,4.30
2022-09-06T20:47:49.827Z,4.05
2022-09-06T20:51:43.384Z,4.07
2022-09-06T20:55:36.302Z,4.00
2022-09-06T20:59:28.895Z,4.20
